Time;durP1;ratioP1;P1;durP2;ratioP2;P2;SDS_P1;SDS_P2;PMS_P1;PMS_P2;Temp;Humidity;BMP_temperature;BMP_pressure;BME280_temperature;BME280_humidity;BME280_pressure;Samples;Min_cycle;Max_cycle;Signal;HPM_P1;HPM_P2
2022/01/02 00:02:41;;;;;;;3.08;1.60;;;;;;;-1.53;100.00;99125.25;4984730;28;20053;-56
2022/01/02 00:05:45;;;;;;;2.75;1.55;;;;;;;-1.52;100.00;99130.50;4970565;28;20422;-65
2022/01/02 00:08:59;;;;;;;2.97;1.50;;;;;;;-1.55;100.00;99138.22;4972492;28;20095;-62
2022/01/02 00:12:11;;;;;;;4.63;1.60;;;;;;;-1.61;100.00;99148.53;4985023;28;20053;-65
2022/01/02 00:15:16;;;;;;;3.50;1.50;;;;;;;-1.74;100.00;99151.75;5020193;22;20533;-62
2022/01/02 00:18:20;;;;;;;3.25;1.52;;;;;;;-1.69;100.00;99151.84;4954804;28;20062;-62
2022/01/02 00:21:28;;;;;;;2.70;1.30;;;;;;;-1.70;100.00;99156.13;4946152;28;20101;-62
2022/01/02 00:24:32;;;;;;;2.80;1.30;;;;;;;-1.69;100.00;99147.53;4952397;28;20169;-62
2022/01/02 00:27:36;;;;;;;3.25;1.30;;;;;;;-1.49;100.00;99169.53;4948868;28;20109;-63
2022/01/02 00:30:42;;;;;;;2.60;1.48;;;;;;;-1.31;100.00;99168.94;4961352;28;20434;-64
2022/01/02 00:33:45;;;;;;;;;;;;;;;-1.31;100.00;99169.84;4954493;28;20061;-62
2022/01/02 00:36:49;;;;;;;2.88;1.63;;;;;;;-1.34;100.00;99172.38;4951178;28;20032;-62
2022/01/02 00:39:53;;;;;;;4.03;1.70;;;;;;;-1.37;100.00;99176.66;4952943;28;20058;-63
2022/01/02 00:43:03;;;;;;;3.23;1.53;;;;;;;-1.17;100.00;99183.06;4955804;28;20094;-62
2022/01/02 00:46:13;;;;;;;2.60;1.58;;;;;;;-1.09;100.00;99173.66;4959041;28;20054;-61
2022/01/02 00:49:24;;;;;;;3.10;1.60;;;;;;;-1.06;100.00;99184.13;4939756;28;20073;-64
2022/01/02 00:52:29;;;;;;;2.75;1.63;;;;;;;-1.11;100.00;99167.59;4955927;28;20061;-65
2022/01/02 00:55:35;;;;;;;4.37;1.57;;;;;;;-1.06;100.00;99174.56;4961815;28;20097;-62
2022/01/02 00:58:54;;;;;;;3.33;1.90;;;;;;;-1.09;100.00;99174.56;4949726;28;20423;-64
2022/01/02 01:02:02;;;;;;;2.78;1.52;;;;;;;-1.11;100.00;99191.84;4951443;28;20083;-64
2022/01/02 01:05:08;;;;;;;3.85;1.77;;;;;;;-1.16;100.00;99193.50;4939131;28;20094;-62
2022/01/02 01:08:11;;;;;;;3.28;1.85;;;;;;;-1.24;100.00;99199.41;4935626;28;20182;-62
2022/01/02 01:11:15;;;;;;;5.07;1.83;;;;;;;-1.71;100.00;99187.28;4962550;28;20117;-61
2022/01/02 01:14:19;;;;;;;3.75;1.67;;;;;;;-1.73;100.00;99202.88;4940858;28;20097;-65
2022/01/02 01:17:24;;;;;;;4.63;1.88;;;;;;;-1.73;100.00;99200.28;4949895;28;20054;-64
2022/01/02 01:20:30;;;;;;;;;;;;;;;-1.72;100.00;99185.53;4949812;28;20054;-62
2022/01/02 01:23:35;;;;;;;7.03;1.35;;;;;;;-2.13;100.00;99196.84;4962228;28;19946;-62
2022/01/02 01:26:40;;;;;;;1.63;0.82;;;;;;;-2.21;100.00;99203.63;4927902;28;20066;-63
2022/01/02 01:29:43;;;;;;;1.73;0.98;;;;;;;-1.87;100.00;99222.50;4947678;28;20053;-62
2022/01/02 01:32:47;;;;;;;1.58;0.95;;;;;;;-1.58;100.00;99210.09;4945238;28;20090;-63
2022/01/02 01:35:50;;;;;;;3.60;0.90;;;;;;;-1.58;100.00;99217.88;4946436;28;20138;-63
2022/01/02 01:38:54;;;;;;;1.50;0.93;;;;;;;-1.44;100.00;99213.78;4947702;28;20129;-62
2022/01/02 01:42:06;;;;;;;4.20;0.85;;;;;;;-1.46;100.00;99213.75;4948588;28;20057;-66
2022/01/02 01:48:27;;;;;;;1.40;0.90;;;;;;;-1.43;100.00;99221.63;4962628;28;20499;-63
2022/01/02 01:51:31;;;;;;;1.60;0.98;;;;;;;-1.46;100.00;99228.50;4949497;28;20588;-63
2022/01/02 01:54:35;;;;;;;3.28;1.00;;;;;;;-1.41;100.00;99225.13;4945660;28;20074;-59
2022/01/02 01:57:39;;;;;;;2.10;1.35;;;;;;;-1.49;100.00;99225.84;4961015;28;20054;-60
2022/01/02 02:00:43;;;;;;;1.90;0.90;;;;;;;-1.55;100.00;99234.38;4949745;28;20066;-62
2022/01/02 02:03:56;;;;;;;1.52;0.93;;;;;;;-1.82;100.00;99220.00;4923135;28;20112;-61
2022/01/02 02:07:00;;;;;;;3.50;1.03;;;;;;;-1.91;100.00;99230.19;4958819;28;20061;-60
2022/01/02 02:10:16;;;;;;;1.85;1.00;;;;;;;-1.98;100.00;99208.41;4952762;28;20364;-63
2022/01/02 02:13:21;;;;;;;2.75;1.08;;;;;;;-1.93;100.00;99222.38;4953943;28;20065;-62
2022/01/02 02:16:28;;;;;;;;;;;;;;;-2.07;100.00;99222.94;4963599;28;20070;-64
2022/01/02 02:19:34;;;;;;;2.28;1.05;;;;;;;-2.21;100.00;99234.78;4949770;28;19965;-61
2022/01/02 02:22:41;;;;;;;1.23;0.90;;;;;;;-2.26;100.00;99231.22;4963669;28;20054;-65
2022/01/02 02:25:44;;;;;;;1.67;1.15;;;;;;;-2.37;100.00;99241.31;4959179;28;20194;-61
2022/01/02 02:28:49;;;;;;;2.50;1.20;;;;;;;-2.09;100.00;99238.47;4948791;28;20458;-60
2022/01/02 02:31:34;;;;;;;2.13;1.25;;;;;;;-2.20;100.00;99233.91;4960661;28;20454;-66
2022/01/02 02:34:38;;;;;;;2.78;1.27;;;;;;;-2.10;100.00;99225.50;4949028;28;20058;-63
2022/01/02 02:37:46;;;;;;;1.35;0.80;;;;;;;-1.72;100.00;99248.78;4960611;28;20082;-64
2022/01/02 02:40:53;;;;;;;3.00;1.17;;;;;;;-1.59;100.00;99245.56;4949695;28;20101;-61
2022/01/02 02:44:05;;;;;;;2.40;1.02;;;;;;;-1.66;100.00;99256.69;4962949;28;20053;-62
2022/01/02 02:50:32;;;;;;;2.10;1.08;;;;;;;-1.85;100.00;99272.78;4962381;28;20058;-64
2022/01/02 02:53:40;;;;;;;1.27;0.90;;;;;;;-1.95;100.00;99276.00;4969212;28;20612;-62
2022/01/02 03:00:00;;;;;;;2.63;1.02;;;;;;;-2.29;100.00;99272.66;4953055;28;20192;-61
2022/01/02 03:03:04;;;;;;;1.95;0.90;;;;;;;-2.27;100.00;99270.97;4951524;28;20050;-63
2022/01/02 03:06:08;;;;;;;2.15;1.10;;;;;;;-2.21;100.00;99286.69;4947373;28;20054;-62
2022/01/02 03:09:12;;;;;;;3.35;0.90;;;;;;;-2.25;100.00;99282.28;4948957;28;20061;-62
2022/01/02 03:12:19;;;;;;;2.10;1.08;;;;;;;-2.26;100.00;99294.38;4938725;28;20058;-64
2022/01/02 03:15:26;;;;;;;2.97;1.00;;;;;;;-2.32;100.00;99314.13;4965753;28;20062;-64
2022/01/02 03:18:29;;;;;;;2.97;0.98;;;;;;;-2.41;100.00;99319.09;4951718;28;20098;-62
2022/01/02 03:21:33;;;;;;;4.43;1.13;;;;;;;-2.34;100.00;99321.88;4942298;28;20534;-64
2022/01/02 03:24:36;;;;;;;3.47;1.00;;;;;;;-2.33;100.00;99314.97;4947218;28;20042;-65
2022/01/02 03:27:41;;;;;;;3.15;1.02;;;;;;;-2.47;100.00;99319.84;4950662;28;20423;-63
2022/01/02 03:30:45;;;;;;;3.03;1.08;;;;;;;-2.44;100.00;99319.03;4956396;28;20133;-65
2022/01/02 03:33:48;;;;;;;1.25;0.75;;;;;;;-2.51;100.00;99332.69;4929982;28;20054;-62
2022/01/02 03:36:52;;;;;;;2.10;1.05;;;;;;;-2.37;100.00;99345.16;4962472;28;20137;-63
2022/01/02 03:39:56;;;;;;;3.78;1.60;;;;;;;-2.34;100.00;99347.81;4930028;28;20576;-65
2022/01/02 03:43:00;;;;;;;2.22;1.00;;;;;;;-2.47;100.00;99326.72;4961151;28;20474;-63
2022/01/02 03:46:04;;;;;;;1.95;1.00;;;;;;;-2.59;100.00;99344.59;4958882;28;20054;-64
2022/01/02 03:49:11;;;;;;;3.50;1.10;;;;;;;-2.34;100.00;99339.19;4948255;28;20057;-61
2022/01/02 03:52:15;;;;;;;1.83;1.23;;;;;;;-2.58;100.00;99346.34;4940669;28;20070;-62
2022/01/02 03:55:19;;;;;;;2.60;1.05;;;;;;;-2.38;100.00;99343.41;4956584;28;20077;-62
2022/01/02 03:58:23;;;;;;;3.75;1.05;;;;;;;-2.41;100.00;99345.06;4947239;28;20570;-63
2022/01/02 04:01:26;;;;;;;3.10;1.00;;;;;;;-2.45;100.00;99356.22;4959077;28;20907;-63
2022/01/02 04:04:30;;;;;;;3.33;1.10;;;;;;;-2.59;100.00;99357.56;4934795;28;20280;-64
2022/01/02 04:07:33;;;;;;;3.15;0.90;;;;;;;-2.51;100.00;99356.03;4927767;28;20114;-63
2022/01/02 04:10:37;;;;;;;4.22;1.10;;;;;;;-2.69;100.00;99343.50;4949564;28;20109;-65
2022/01/02 04:13:40;;;;;;;2.05;1.13;;;;;;;-2.55;100.00;99356.81;4942023;28;20489;-62
2022/01/02 04:16:43;;;;;;;1.48;1.20;;;;;;;-2.71;100.00;99357.25;4948022;28;20169;-66
2022/01/02 04:19:47;;;;;;;1.48;0.93;;;;;;;-2.72;100.00;99369.38;4958517;28;20054;-63
2022/01/02 04:22:52;;;;;;;;;;;;;;;-2.59;100.00;99357.56;4951186;28;20057;-62
2022/01/02 04:25:58;;;;;;;1.90;0.80;;;;;;;-2.73;100.00;99333.03;4950816;28;19937;-71
2022/01/02 04:29:01;;;;;;;2.70;1.13;;;;;;;-2.82;100.00;99366.47;4958546;28;20065;-66
2022/01/02 04:32:05;;;;;;;3.63;1.00;;;;;;;-2.83;100.00;99357.84;4947592;28;20117;-66
2022/01/02 04:35:09;;;;;;;3.65;0.90;;;;;;;-2.89;100.00;99365.44;4957552;28;20118;-66
2022/01/02 04:38:15;;;;;;;2.63;1.00;;;;;;;-2.96;100.00;99386.00;4932267;28;20058;-65
2022/01/02 04:41:18;;;;;;;1.58;0.85;;;;;;;-2.89;100.00;99362.00;4939964;28;20066;-64
2022/01/02 04:44:21;;;;;;;3.40;0.80;;;;;;;-2.97;100.00;99373.88;4948509;28;20565;-62
2022/01/02 04:47:26;;;;;;;1.48;0.70;;;;;;;-2.97;100.00;99387.72;4953055;28;20069;-64
2022/01/02 04:50:29;;;;;;;4.25;1.02;;;;;;;-2.94;100.00;99394.69;4948637;28;20049;-63
2022/01/02 04:53:35;;;;;;;1.15;0.80;;;;;;;-2.91;100.00;99366.25;4957966;28;20480;-63
2022/01/02 04:56:40;;;;;;;3.63;0.80;;;;;;;-2.89;100.00;99387.94;4932043;28;20136;-63
2022/01/02 04:59:46;;;;;;;0.93;0.50;;;;;;;-2.92;100.00;99386.16;4945512;28;20078;-68
2022/01/02 05:02:50;;;;;;;1.65;0.60;;;;;;;-3.04;100.00;99403.97;4949052;28;20289;-63
2022/01/02 05:05:53;;;;;;;2.15;0.77;;;;;;;-3.08;100.00;99396.94;4952970;28;20070;-63
2022/01/02 05:08:57;;;;;;;3.70;0.73;;;;;;;-3.05;100.00;99404.78;4961230;28;20077;-63
2022/01/02 05:12:01;;;;;;;3.03;0.77;;;;;;;-2.98;100.00;99404.13;4960418;28;20174;-62
2022/01/02 05:15:06;;;;;;;1.65;0.65;;;;;;;-3.00;100.00;99372.09;4942578;28;20041;-63
2022/01/02 05:18:11;;;;;;;2.17;0.70;;;;;;;-2.89;100.00;99408.69;4944344;28;20138;-64
2022/01/02 05:21:15;;;;;;;2.45;0.85;;;;;;;-2.86;100.00;99407.03;4952748;28;20053;-64
2022/01/02 05:24:19;;;;;;;1.15;0.50;;;;;;;-3.15;100.00;99394.13;4953285;28;20562;-62
2022/01/02 05:27:23;;;;;;;2.03;0.93;;;;;;;-2.96;100.00;99418.00;4956075;28;20066;-66
2022/01/02 05:30:27;;;;;;;2.35;0.98;;;;;;;-2.89;100.00;99427.69;4944924;28;20057;-64
2022/01/02 05:33:32;;;;;;;2.55;0.80;;;;;;;-2.93;100.00;99415.47;4939213;28;20479;-62
2022/01/02 05:36:35;;;;;;;1.42;0.80;;;;;;;-3.03;100.00;99410.00;4944473;28;20105;-67
2022/01/02 05:39:38;;;;;;;2.33;0.95;;;;;;;-3.04;100.00;99424.72;4953401;28;20065;-62
2022/01/02 05:42:42;;;;;;;2.70;0.70;;;;;;;-2.97;100.00;99430.94;4965697;28;20058;-63
2022/01/02 05:45:45;;;;;;;0.98;0.60;;;;;;;-2.99;100.00;99420.53;4961058;28;20061;-64
2022/01/02 05:48:50;;;;;;;2.25;0.80;;;;;;;-3.16;100.00;99429.56;4965008;28;20129;-63
2022/01/02 05:51:54;;;;;;;2.73;1.10;;;;;;;-3.18;100.00;99441.56;4941028;28;20177;-62
2022/01/02 05:54:58;;;;;;;1.65;0.65;;;;;;;-3.16;100.00;99429.56;4948991;28;20821;-65
2022/01/02 05:58:02;;;;;;;3.33;1.10;;;;;;;-3.30;100.00;99433.44;4967256;28;20117;-62
2022/01/02 06:01:06;;;;;;;4.53;0.80;;;;;;;-3.30;100.00;99459.38;4951271;28;20109;-61
2022/01/02 06:04:09;;;;;;;1.55;0.82;;;;;;;-3.35;100.00;99455.78;4952339;28;20376;-63
2022/01/02 06:07:14;;;;;;;3.95;1.10;;;;;;;-3.29;100.00;99468.91;4946740;28;20050;-62
2022/01/02 06:10:18;;;;;;;3.47;1.00;;;;;;;-3.30;100.00;99466.25;4944269;28;20050;-62
2022/01/02 06:13:22;;;;;;;4.78;1.02;;;;;;;-3.34;100.00;99474.78;4959964;28;20153;-63
2022/01/02 06:16:26;;;;;;;1.30;0.82;;;;;;;-3.32;100.00;99473.97;4949261;28;21018;-67
2022/01/02 06:19:30;;;;;;;3.85;0.85;;;;;;;-3.33;100.00;99498.16;4959002;28;20157;-63
2022/01/02 06:22:33;;;;;;;3.35;0.95;;;;;;;-3.48;100.00;99502.00;4953144;28;20070;-62
2022/01/02 06:25:37;;;;;;;2.85;1.10;;;;;;;-3.40;100.00;99506.56;4959864;28;20109;-66
2022/01/02 06:28:41;;;;;;;1.92;1.02;;;;;;;-3.31;100.00;99506.84;4957099;28;20137;-66
2022/01/02 06:31:45;;;;;;;1.70;1.10;;;;;;;-3.34;100.00;99506.75;4957931;28;20062;-65
2022/01/02 06:34:49;;;;;;;1.80;1.02;;;;;;;-3.51;100.00;99507.06;4952465;28;20407;-62
2022/01/02 06:37:54;;;;;;;2.95;1.00;;;;;;;-3.31;100.00;99516.34;4951343;28;20077;-63
2022/01/02 06:40:58;;;;;;;2.88;1.15;;;;;;;-3.41;100.00;99511.72;4961121;28;20061;-64
2022/01/02 06:44:02;;;;;;;3.58;1.20;;;;;;;-3.40;100.00;99514.34;4951353;28;20057;-64
2022/01/02 06:47:05;;;;;;;2.00;0.98;;;;;;;-3.53;100.00;99496.66;4971187;28;20577;-63
2022/01/02 06:50:12;;;;;;;2.47;1.02;;;;;;;-3.39;100.00;99517.81;4956658;28;20077;-63
2022/01/02 06:53:15;;;;;;;2.78;0.98;;;;;;;-3.55;100.00;99523.38;4960293;28;20066;-63
2022/01/02 06:56:18;;;;;;;1.98;0.90;;;;;;;-3.61;100.00;99524.03;4962094;28;20057;-62
2022/01/02 06:59:22;;;;;;;2.15;0.90;;;;;;;-3.57;100.00;99522.44;4966577;28;20141;-66
2022/01/02 07:02:26;;;;;;;3.42;0.80;;;;;;;-3.62;100.00;99517.13;4950291;28;20112;-62
2022/01/02 07:05:30;;;;;;;1.25;0.77;;;;;;;-3.68;100.00;99531.59;4958074;28;20113;-63
2022/01/02 07:08:34;;;;;;;4.55;1.13;;;;;;;-3.59;100.00;99522.41;4954557;28;20113;-62
2022/01/02 07:11:37;;;;;;;3.83;0.98;;;;;;;-3.58;100.00;99520.66;4963166;28;20505;-63
2022/01/02 07:14:40;;;;;;;3.85;1.17;;;;;;;-3.25;100.00;99527.75;4957933;28;20542;-64
2022/01/02 07:17:44;;;;;;;3.42;1.13;;;;;;;-3.19;100.00;99525.38;4956903;28;20054;-62
2022/01/02 07:20:48;;;;;;;3.10;1.40;;;;;;;-3.39;100.00;99531.66;4966643;28;20422;-63
2022/01/02 07:23:54;;;;;;;5.00;1.05;;;;;;;-3.36;100.00;99526.56;4956534;28;20149;-62
2022/01/02 07:26:58;;;;;;;4.43;1.10;;;;;;;-3.45;100.00;99535.78;4945754;28;20537;-63
2022/01/02 07:30:03;;;;;;;3.63;1.30;;;;;;;-3.64;100.00;99518.75;4949476;28;20065;-66
2022/01/02 07:33:07;;;;;;;3.65;1.42;;;;;;;-3.69;100.00;99535.03;4964653;28;20182;-65
2022/01/02 07:36:10;;;;;;;2.70;1.48;;;;;;;-3.62;100.00;99536.94;4953573;28;20558;-66
2022/01/02 07:39:15;;;;;;;4.05;1.23;;;;;;;-3.62;100.00;99552.50;4956822;28;20137;-63
2022/01/02 07:42:18;;;;;;;3.45;1.38;;;;;;;-3.52;100.00;99555.41;4950103;28;20054;-66
2022/01/02 07:45:29;;;;;;;2.80;1.25;;;;;;;-3.55;100.00;99552.75;4951422;28;20458;-64
2022/01/02 07:48:32;;;;;;;6.10;1.50;;;;;;;-3.49;100.00;99539.97;4949285;28;20078;-64
2022/01/02 07:51:35;;;;;;;2.78;1.40;;;;;;;-3.43;100.00;99563.50;4944526;28;20474;-64
2022/01/02 07:54:39;;;;;;;3.17;1.13;;;;;;;-3.61;100.00;99565.50;4962811;28;20049;-66
2022/01/02 07:57:42;;;;;;;4.50;1.38;;;;;;;-3.56;100.00;99565.66;4960762;28;20052;-62
2022/01/02 08:00:46;;;;;;;1.98;0.90;;;;;;;-3.52;100.00;99567.50;4950004;28;20061;-63
2022/01/02 08:03:30;;;;;;;3.20;1.20;;;;;;;-3.48;100.00;99539.13;4958145;28;20539;-63
2022/01/02 08:06:33;;;;;;;2.85;1.60;;;;;;;-3.38;100.00;99568.81;4965620;28;20054;-64
2022/01/02 08:09:18;;;;;;;4.55;1.40;;;;;;;-3.40;100.00;99562.72;4954383;28;20047;-66
2022/01/02 08:12:21;;;;;;;3.22;1.50;;;;;;;-3.38;100.00;99576.56;4970506;28;20066;-66
2022/01/02 08:15:25;;;;;;;4.15;1.63;;;;;;;-3.31;100.00;99583.72;4956782;28;20120;-66
2022/01/02 08:18:28;;;;;;;4.07;1.30;;;;;;;-3.35;100.00;99579.28;4952437;28;20083;-66
2022/01/02 08:21:33;;;;;;;3.78;1.40;;;;;;;-3.28;100.00;99589.00;4962073;28;20058;-64
2022/01/02 08:24:36;;;;;;;4.15;1.10;;;;;;;-3.24;100.00;99583.09;4946876;28;20113;-62
2022/01/02 08:27:40;;;;;;;3.80;1.23;;;;;;;-3.33;100.00;99578.50;4952187;28;20182;-65
2022/01/02 08:30:44;;;;;;;1.83;1.10;;;;;;;-3.39;100.00;99582.59;4948930;28;20471;-64
2022/01/02 08:33:47;;;;;;;2.03;1.20;;;;;;;-3.21;100.00;99589.22;4960876;28;20137;-66
2022/01/02 08:36:51;;;;;;;2.13;1.10;;;;;;;-3.39;100.00;99596.44;4959948;28;20077;-65
2022/01/02 08:39:55;;;;;;;3.63;1.55;;;;;;;-3.44;100.00;99592.81;4953527;28;20414;-64
2022/01/02 08:42:58;;;;;;;3.30;1.23;;;;;;;-3.25;100.00;99596.88;4964516;28;20070;-67
2022/01/02 08:46:02;;;;;;;3.67;1.30;;;;;;;-3.33;100.00;99588.00;4951182;28;20054;-65
2022/01/02 08:49:06;;;;;;;2.88;1.25;;;;;;;-3.31;100.00;99607.03;4948776;28;20058;-64
2022/01/02 08:52:09;;;;;;;2.88;1.23;;;;;;;-3.28;100.00;99584.69;4961476;28;20058;-66
2022/01/02 08:55:14;;;;;;;3.95;1.30;;;;;;;-3.25;100.00;99597.75;4950511;28;20070;-63
2022/01/02 08:58:17;;;;;;;2.83;1.02;;;;;;;-3.53;100.00;99574.38;4958290;28;20150;-65
2022/01/02 09:01:21;;;;;;;2.65;1.25;;;;;;;-3.52;100.00;99596.00;4949928;28;20443;-65
2022/01/02 09:04:24;;;;;;;2.78;1.27;;;;;;;-3.51;100.00;99601.25;4963652;28;20046;-64
2022/01/02 09:07:28;;;;;;;2.15;1.00;;;;;;;-3.55;100.00;99607.16;4961814;28;20061;-64
2022/01/02 09:10:31;;;;;;;3.00;1.30;;;;;;;-3.28;100.00;99605.41;4959486;28;20106;-66
2022/01/02 09:13:35;;;;;;;3.55;1.50;;;;;;;-3.62;100.00;99602.59;4958772;28;20533;-65
2022/01/02 09:16:44;;;;;;;6.13;1.70;;;;;;;-3.63;100.00;99603.44;4959119;28;20097;-65
2022/01/02 09:19:52;;;;;;;3.45;1.40;;;;;;;-3.62;100.00;99599.13;4964049;28;20054;-63
2022/01/02 09:22:56;;;;;;;5.38;1.80;;;;;;;-3.34;100.00;99609.53;4964308;28;20081;-65
2022/01/02 09:25:59;;;;;;;3.08;1.55;;;;;;;-3.31;100.00;99594.09;4972884;28;20054;-67
2022/01/02 09:29:04;;;;;;;4.05;1.63;;;;;;;-3.08;100.00;99598.28;4962991;28;20141;-64
2022/01/02 09:32:07;;;;;;;4.47;1.50;;;;;;;-3.06;100.00;99594.00;4957282;28;20058;-68
2022/01/02 09:35:11;;;;;;;3.03;1.60;;;;;;;-3.31;100.00;99574.25;4958651;28;20574;-64
2022/01/02 09:38:15;;;;;;;4.88;1.90;;;;;;;-3.18;100.00;99578.97;4960829;28;20054;-72
2022/01/02 09:41:19;;;;;;;2.28;1.38;;;;;;;-3.05;100.00;99588.88;4961123;28;20078;-65
2022/01/02 09:44:05;;;;;;;;;;;;;;;-2.85;100.00;99581.69;4959564;28;20511;-66
2022/01/02 09:47:10;;;;;;;5.60;1.73;;;;;;;-2.88;100.00;99581.59;4953988;28;19925;-63
2022/01/02 09:50:14;;;;;;;4.40;1.58;;;;;;;-2.69;100.00;99569.19;4959638;28;20046;-63
2022/01/02 09:53:19;;;;;;;3.55;1.85;;;;;;;-2.88;100.00;99576.41;4960615;28;20367;-64
2022/01/02 09:56:05;;;;;;;3.55;2.03;;;;;;;-2.81;100.00;99568.00;4956834;28;20073;-66
2022/01/02 09:58:51;;;;;;;5.22;2.20;;;;;;;-2.81;100.00;99561.06;4971659;28;20069;-65
2022/01/02 10:01:36;;;;;;;3.47;1.75;;;;;;;-2.65;100.00;99565.00;4956857;28;20053;-65
2022/01/02 10:04:38;;;;;;;5.70;1.60;;;;;;;-2.63;100.00;99552.94;4963299;28;20053;-65
2022/01/02 10:07:33;;;;;;;2.67;1.65;;;;;;;-2.49;100.00;99574.97;4961923;28;20082;-64
2022/01/02 10:10:19;;;;;;;6.15;1.70;;;;;;;-2.76;100.00;99582.84;4939880;28;20080;-65
2022/01/02 10:13:04;;;;;;;3.50;1.70;;;;;;;-2.40;100.00;99583.00;4964716;28;20133;-64
2022/01/02 10:15:48;;;;;;;6.07;1.88;;;;;;;-1.80;100.00;99590.72;4966021;28;20383;-69
2022/01/02 10:18:33;;;;;;;8.05;2.10;;;;;;;-0.66;100.00;99587.34;4951850;28;20108;-66
2022/01/02 10:21:35;;;;;;;3.05;1.80;;;;;;;0.40;100.00;99612.00;4949320;28;20403;-68
2022/01/02 10:27:06;;;;;;;3.03;1.50;;;;;;;-1.00;100.00;99603.03;4962756;28;20185;-68
2022/01/02 10:29:58;;;;;;;4.57;1.67;;;;;;;-1.44;100.00;99620.22;4952956;28;20058;-66
2022/01/02 10:32:46;;;;;;;3.92;1.70;;;;;;;-1.86;100.00;99613.91;4958648;28;20522;-64
2022/01/02 10:35:32;;;;;;;4.88;1.65;;;;;;;-2.31;100.00;99611.81;4949503;28;20112;-65
2022/01/02 10:38:18;;;;;;;4.82;1.50;;;;;;;-2.53;100.00;99612.91;4948294;28;20141;-69
2022/01/02 10:41:03;;;;;;;;;;;;;;;-2.68;100.00;99629.75;4947029;28;20078;-66
2022/01/02 10:43:48;;;;;;;4.28;1.67;;;;;;;-2.85;100.00;99615.41;4933447;28;19933;-64
2022/01/02 10:46:33;;;;;;;3.03;1.33;;;;;;;-3.02;100.00;99617.50;4946359;28;20407;-66
2022/01/02 10:49:17;;;;;;;3.25;1.33;;;;;;;-3.04;100.00;99633.84;4944915;28;20147;-65
2022/01/02 10:52:24;;;;;;;2.90;1.48;;;;;;;-2.76;100.00;99628.66;4958343;28;20069;-67
2022/01/02 10:55:20;;;;;;;4.55;1.77;;;;;;;-2.87;100.00;99623.16;4945801;28;20431;-66
2022/01/02 10:58:08;;;;;;;3.28;1.60;;;;;;;-2.91;100.00;99638.56;4946852;28;20053;-65
2022/01/02 11:00:56;;;;;;;4.03;1.50;;;;;;;-2.91;100.00;99639.44;4952937;28;20054;-64
2022/01/02 11:03:45;;;;;;;5.30;1.80;;;;;;;-2.74;100.00;99643.44;4932654;28;20629;-64
2022/01/02 11:06:35;;;;;;;4.30;1.65;;;;;;;-2.88;100.00;99630.88;4938689;28;20622;-65
2022/01/02 11:09:23;;;;;;;5.00;2.40;;;;;;;-3.06;100.00;99648.44;4931035;28;20150;-64
2022/01/02 11:12:10;;;;;;;4.05;1.77;;;;;;;-2.68;100.00;99661.78;4936865;28;20174;-67
2022/01/02 11:14:56;;;;;;;2.38;1.30;;;;;;;-3.01;100.00;99644.31;4951717;28;20601;-67
2022/01/02 11:17:41;;;;;;;4.40;1.88;;;;;;;-3.11;100.00;99642.25;4953542;28;20526;-67
2022/01/02 11:20:29;;;;;;;5.68;2.80;;;;;;;-2.78;100.00;99654.53;4957455;28;20094;-66
2022/01/02 11:23:25;;;;;;;4.75;1.85;;;;;;;-2.31;100.00;99658.53;4923465;28;20050;-64
2022/01/02 11:27:01;;;;;;;4.03;1.83;;;;;;;-2.42;100.00;99652.19;4959365;28;20130;-65
2022/01/02 11:29:46;;;;;;;4.03;1.90;;;;;;;-2.88;100.00;99660.31;4932942;29;20066;-64
2022/01/02 11:32:31;;;;;;;2.75;1.80;;;;;;;-2.81;100.00;99657.03;4931895;29;20149;-66
2022/01/02 11:35:30;;;;;;;4.20;2.00;;;;;;;-2.68;100.00;99651.41;4931696;29;20581;-66
2022/01/02 11:38:21;;;;;;;2.70;1.60;;;;;;;-2.91;100.00;99656.72;4929740;28;20121;-66
2022/01/02 11:41:14;;;;;;;3.33;1.92;;;;;;;-2.96;100.00;99658.28;4919896;29;20075;-66
2022/01/02 11:44:01;;;;;;;3.25;1.63;;;;;;;-3.16;100.00;99668.06;4932713;29;20054;-70
2022/01/02 11:46:47;;;;;;;3.55;1.70;;;;;;;-3.15;100.00;99653.34;4930123;29;20097;-68
2022/01/02 11:49:38;;;;;;;4.55;1.70;;;;;;;-3.06;100.00;99648.44;4904243;28;20554;-65
2022/01/02 11:53:07;;;;;;;3.72;1.63;;;;;;;-2.97;100.00;99654.81;4933080;29;20082;-64
2022/01/02 11:55:54;;;;;;;4.93;1.98;;;;;;;-2.81;100.00;99649.25;4945685;29;20606;-70
2022/01/02 11:58:42;;;;;;;6.40;2.13;;;;;;;-3.07;100.00;99645.00;4930014;29;20146;-67
2022/01/02 12:03:53;;;;;;;3.17;1.42;;;;;;;-3.40;100.00;99637.88;4943913;29;20051;-65
2022/01/02 12:06:38;;;;;;;3.22;1.58;;;;;;;-3.30;100.00;99634.72;4961910;28;20105;-66
2022/01/02 12:09:35;;;;;;;3.42;1.70;;;;;;;-3.07;100.00;99654.47;4962613;28;20057;-66
2022/01/02 12:12:20;;;;;;;3.75;1.70;;;;;;;-3.06;100.00;99657.13;4955399;28;20054;-70
2022/01/02 12:15:04;;;;;;;4.07;1.70;;;;;;;-2.89;100.00;99661.09;4966087;28;20159;-64
2022/01/02 12:18:27;;;;;;;4.88;1.58;;;;;;;-2.97;100.00;99672.09;4935344;28;20137;-65
2022/01/02 12:21:12;;;;;;;5.15;2.30;;;;;;;-3.30;100.00;99671.00;4904008;29;20055;-66
2022/01/02 12:23:58;;;;;;;6.68;2.20;;;;;;;-3.26;100.00;99675.44;4907872;29;20094;-68
2022/01/02 12:26:46;;;;;;;5.80;1.92;;;;;;;-3.35;100.00;99676.06;4889948;29;20088;-65
2022/01/02 12:29:31;;;;;;;5.50;2.20;;;;;;;-3.29;100.00;99685.75;4897440;29;20095;-66
2022/01/02 12:32:21;;;;;;;4.95;2.20;;;;;;;-3.20;100.00;99693.81;4903362;29;20175;-63
2022/01/02 12:35:07;;;;;;;4.55;2.03;;;;;;;-3.35;100.00;99694.19;4914892;29;20086;-66
2022/01/02 12:38:03;;;;;;;3.30;1.80;;;;;;;-3.36;100.00;99679.44;4924163;29;20086;-59
2022/01/02 12:40:49;;;;;;;3.17;1.80;;;;;;;-3.32;100.00;99691.69;4921320;29;20182;-66
2022/01/02 12:43:34;;;;;;;4.47;1.88;;;;;;;-3.33;100.00;99691.66;4911412;29;20522;-69
2022/01/02 12:46:35;;;;;;;3.35;1.60;;;;;;;-3.20;100.00;99704.19;4921461;29;20551;-66
2022/01/02 12:49:25;;;;;;;4.30;1.85;;;;;;;-3.18;100.00;99703.41;4918181;29;20050;-62
2022/01/02 12:52:13;;;;;;;4.57;2.03;;;;;;;-3.33;100.00;99700.31;4908218;29;20063;-68
2022/01/02 12:54:58;;;;;;;3.95;2.20;;;;;;;-3.17;100.00;99712.06;4923399;28;20058;-62
2022/01/02 12:57:44;;;;;;;4.43;2.20;;;;;;;-3.15;100.00;99694.84;4952456;28;20054;-69
2022/01/02 13:00:29;;;;;;;6.38;2.33;;;;;;;-3.05;100.00;99704.69;4959357;28;20101;-64
2022/01/02 13:03:17;;;;;;;7.28;2.63;;;;;;;-3.18;100.00;99699.91;4944924;28;20458;-64
2022/01/02 13:06:03;;;;;;;6.65;2.30;;;;;;;-3.43;100.00;99703.44;4927214;28;21053;-63
2022/01/02 13:08:56;;;;;;;4.85;2.13;;;;;;;-3.33;100.00;99709.81;4959580;28;20855;-63
2022/01/02 13:11:42;;;;;;;5.50;2.20;;;;;;;-3.49;100.00;99707.53;4953250;28;20138;-63
2022/01/02 13:14:40;;;;;;;3.47;2.20;;;;;;;-3.51;100.00;99710.06;4936546;28;20530;-64
2022/01/02 13:17:25;;;;;;;5.93;2.67;;;;;;;-3.76;100.00;99689.31;4950984;28;20521;-67
2022/01/02 13:20:21;;;;;;;5.70;2.70;;;;;;;-3.43;100.00;99718.97;4958169;28;20065;-66
2022/01/02 13:23:07;;;;;;;5.07;2.28;;;;;;;-3.62;100.00;99716.59;4962324;28;20062;-68
2022/01/02 13:25:52;;;;;;;4.95;2.10;;;;;;;-3.65;100.00;99713.03;4950408;28;20139;-69
2022/01/02 13:28:37;;;;;;;3.03;1.80;;;;;;;-3.74;100.00;99703.22;4960616;28;20054;-75
2022/01/02 13:31:25;;;;;;;4.90;2.28;;;;;;;-3.73;100.00;99707.56;4953052;28;20137;-63
2022/01/02 13:34:22;;;;;;;4.85;2.40;;;;;;;-3.52;100.00;99704.81;4950588;28;20129;-63
2022/01/02 13:37:07;;;;;;;11.85;2.03;;;;;;;-3.71;100.00;99692.97;4967047;28;20101;-64
2022/01/02 13:39:51;;;;;;;3.78;1.65;;;;;;;-3.91;100.00;99691.38;4956303;28;20050;-70
2022/01/02 13:42:44;;;;;;;4.40;2.60;;;;;;;-3.60;100.00;99691.59;4957466;28;20097;-66
2022/01/02 13:45:34;;;;;;;4.82;2.20;;;;;;;-3.55;100.00;99687.47;4944907;28;20074;-67
2022/01/02 13:48:22;;;;;;;4.63;2.20;;;;;;;-3.68;100.00;99682.69;4955644;28;20142;-65
2022/01/02 13:51:16;;;;;;;4.68;2.00;;;;;;;-3.72;100.00;99690.31;4955680;28;20070;-65
2022/01/02 13:54:14;;;;;;;5.18;2.00;;;;;;;-3.85;100.00;99678.63;4961596;28;20478;-66
2022/01/02 13:56:59;;;;;;;3.97;1.63;;;;;;;-3.88;100.00;99664.72;4962385;28;20113;-68
2022/01/02 13:59:46;;;;;;;3.38;2.03;;;;;;;-3.96;100.00;99668.75;4950553;28;20304;-67
2022/01/02 14:02:40;;;;;;;6.28;2.25;;;;;;;-3.91;100.00;99678.44;4964278;28;20296;-66
2022/01/02 14:05:43;;;;;;;5.25;2.03;;;;;;;-3.77;100.00;99676.34;4952705;28;20054;-64
2022/01/02 14:08:31;;;;;;;4.72;2.40;;;;;;;-3.76;100.00;99680.69;4952528;28;20042;-68
2022/01/02 14:11:18;;;;;;;6.65;2.30;;;;;;;-3.81;100.00;99677.91;4949122;28;20540;-64
2022/01/02 14:14:12;;;;;;;7.00;2.05;;;;;;;-3.76;100.00;99668.59;4959410;28;20453;-68